createdAt,value
2019-03-30T00:03:01.248Z,3.1
2019-03-30T00:14:01.245Z,3.4
2019-03-30T00:19:01.154Z,3.3
2019-03-30T00:24:01.315Z,3.4
2019-03-30T00:34:01.250Z,3.1
2019-03-30T00:39:01.124Z,2.8
2019-03-30T00:44:01.264Z,2.7
2019-03-30T00:49:03.333Z,2.4
2019-03-30T00:55:01.164Z,2.3
2019-03-30T01:00:01.157Z,2.0
2019-03-30T01:05:01.220Z,1.9
2019-03-30T01:10:01.217Z,1.8
2019-03-30T01:15:01.253Z,1.9
2019-03-30T01:30:01.254Z,1.9
2019-03-30T01:35:01.368Z,1.8
2019-03-30T01:45:01.289Z,1.7
2019-03-30T01:50:01.185Z,1.8
2019-03-30T02:00:01.252Z,1.8
2019-03-30T02:15:01.319Z,1.7
2019-03-30T02:20:01.172Z,1.8
2019-03-30T02:31:01.315Z,1.7
2019-03-30T02:41:01.248Z,1.8
2019-03-30T02:46:01.218Z,1.9
2019-03-30T02:56:01.257Z,2.0
2019-03-30T03:06:01.248Z,1.9
2019-03-30T03:11:01.163Z,2.2
2019-03-30T03:17:01.249Z,2.3
2019-03-30T03:22:06.159Z,2.2
2019-03-30T03:37:01.288Z,1.9
2019-03-30T03:42:01.220Z,1.8
2019-03-30T03:57:01.304Z,1.8
2019-03-30T04:02:01.151Z,1.9
2019-03-30T04:07:01.280Z,1.8
2019-03-30T04:12:01.151Z,2.0
2019-03-30T04:27:01.159Z,2.2
2019-03-30T04:32:01.156Z,2.3
2019-03-30T04:37:01.214Z,2.2
2019-03-30T04:42:01.157Z,2.1
2019-03-30T04:47:01.275Z,2.0
2019-03-30T04:57:01.211Z,2.2
2019-03-30T05:02:01.154Z,2.1
2019-03-30T05:07:01.222Z,2.2
2019-03-30T05:17:01.273Z,2.0
2019-03-30T05:22:11.795Z,1.7
2019-03-30T05:27:01.166Z,1.9
2019-03-30T05:32:01.734Z,2.0
2019-03-30T05:47:01.154Z,1.9
2019-03-30T05:52:01.124Z,1.7
2019-03-30T06:02:01.315Z,1.8
2019-03-30T06:07:01.221Z,1.9
2019-03-30T06:12:01.159Z,2.0
2019-03-30T06:17:01.222Z,2.2
2019-03-30T06:27:01.280Z,2.3
2019-03-30T06:42:01.275Z,2.3
2019-03-30T06:52:01.221Z,2.4
2019-03-30T07:02:01.232Z,2.5
2019-03-30T07:07:01.226Z,2.6
2019-03-30T07:22:01.234Z,2.6
2019-03-30T07:33:01.251Z,2.7
2019-03-30T07:48:01.255Z,2.8
2019-03-30T08:03:01.363Z,2.9
2019-03-30T08:14:01.219Z,3.1
2019-03-30T08:19:01.189Z,3.8
2019-03-30T08:24:01.224Z,4.5
2019-03-30T08:29:01.156Z,5.9
2019-03-30T08:34:01.197Z,7.3
2019-03-30T08:39:01.230Z,9.4
2019-03-30T08:44:01.361Z,11.0
2019-03-30T08:49:01.230Z,14.1
2019-03-30T08:54:02.332Z,16.3
2019-03-30T08:59:01.167Z,18.4
2019-03-30T09:04:01.293Z,19.5
2019-03-30T09:09:01.225Z,21.4
2019-03-30T09:14:01.269Z,22.0
2019-03-30T09:19:01.154Z,23.5
2019-03-30T09:24:09.216Z,24.9
2019-03-30T09:29:01.158Z,28.0
2019-03-30T09:34:01.198Z,30.4
2019-03-30T09:39:01.159Z,32.4
2019-03-30T09:44:01.262Z,33.9
2019-03-30T09:49:01.221Z,36.3
2019-03-30T09:54:01.221Z,36.9
2019-03-30T09:59:01.195Z,37.6
2019-03-30T10:04:06.229Z,38.8
2019-03-30T10:09:01.242Z,41.6
2019-03-30T10:14:01.222Z,42.4
2019-03-30T10:19:02.120Z,44.1
2019-03-30T10:24:01.258Z,45.0
2019-03-30T10:29:01.199Z,46.3
2019-03-30T10:34:01.325Z,45.3
2019-03-30T10:39:01.160Z,46.4
2019-03-30T10:44:01.296Z,46.6
2019-03-30T10:49:01.129Z,47.4
2019-03-30T10:54:01.562Z,48.6
2019-03-30T10:59:01.178Z,49.8
2019-03-30T11:04:01.211Z,50.0
2019-03-30T11:09:01.133Z,50.8
2019-03-30T11:14:01.312Z,51.0
2019-03-30T11:19:01.152Z,51.5
2019-03-30T11:24:01.286Z,51.7
2019-03-30T11:29:01.211Z,52.4
2019-03-30T11:34:01.251Z,52.8
2019-03-30T11:39:01.143Z,53.3
2019-03-30T11:44:01.230Z,53.2
2019-03-30T11:49:01.164Z,53.4
2019-03-30T11:54:01.290Z,54.2
2019-03-30T11:59:01.180Z,54.7
2019-03-30T12:04:01.269Z,55.1
2019-03-30T12:09:01.191Z,55.7
2019-03-30T12:14:01.224Z,56.5
2019-03-30T12:19:01.199Z,55.7
2019-03-30T12:24:01.232Z,55.5
2019-03-30T12:29:01.262Z,55.1
2019-03-30T12:34:01.273Z,54.4
2019-03-30T12:44:01.179Z,56.4
2019-03-30T12:54:01.230Z,57.1
2019-03-30T12:59:01.186Z,56.6
2019-03-30T13:04:01.220Z,55.9
2019-03-30T13:09:01.153Z,54.0
2019-03-30T13:14:01.246Z,53.9
2019-03-30T13:19:01.196Z,53.5
2019-03-30T13:24:01.230Z,54.9
2019-03-30T13:29:01.162Z,56.5
2019-03-30T13:34:01.212Z,56.2
2019-03-30T13:39:01.159Z,56.0
2019-03-30T13:44:01.187Z,55.3
2019-03-30T13:49:01.155Z,54.3
2019-03-30T13:54:01.250Z,52.0
2019-03-30T13:59:01.165Z,51.8
2019-03-30T14:04:01.236Z,51.3
2019-03-30T14:09:01.141Z,52.0
2019-03-30T14:14:01.268Z,52.6
2019-03-30T14:24:01.288Z,53.0
2019-03-30T14:29:01.178Z,53.7
2019-03-30T14:34:01.213Z,53.8
2019-03-30T14:39:01.150Z,54.3
2019-03-30T14:44:01.320Z,55.4
2019-03-30T14:49:01.190Z,56.4
2019-03-30T14:54:01.287Z,57.0
2019-03-30T14:59:09.768Z,57.8
2019-03-30T15:04:01.206Z,57.1
2019-03-30T15:09:01.196Z,58.2
2019-03-30T15:15:01.197Z,58.5
2019-03-30T15:20:01.133Z,58.9
2019-03-30T15:25:01.223Z,59.6
2019-03-30T15:30:01.182Z,60.7
2019-03-30T15:35:01.250Z,60.5
2019-03-30T15:40:01.173Z,60.9
2019-03-30T15:45:01.227Z,61.5
2019-03-30T15:50:01.192Z,61.2
2019-03-30T15:55:01.332Z,60.7
2019-03-30T16:00:01.172Z,61.3
2019-03-30T16:06:01.310Z,61.4
2019-03-30T16:11:01.187Z,60.5
2019-03-30T16:16:01.284Z,58.9
2019-03-30T16:21:01.157Z,58.5
2019-03-30T16:26:01.213Z,56.3
2019-03-30T16:31:01.156Z,55.4
2019-03-30T16:36:02.753Z,54.4
2019-03-30T16:46:01.567Z,54.7
2019-03-30T16:51:01.158Z,54.3
2019-03-30T16:56:01.212Z,53.7
2019-03-30T17:01:01.151Z,54.0
2019-03-30T17:06:01.223Z,55.0
2019-03-30T17:11:01.138Z,54.0
2019-03-30T17:21:01.224Z,52.6
2019-03-30T17:26:01.281Z,51.7
2019-03-30T17:31:01.171Z,49.2
2019-03-30T17:36:01.213Z,47.6
2019-03-30T17:41:01.145Z,45.7
2019-03-30T17:46:01.161Z,43.3
2019-03-30T17:51:01.153Z,40.2
2019-03-30T17:56:01.948Z,38.5
2019-03-30T18:01:01.164Z,37.0
2019-03-30T18:06:01.214Z,35.9
2019-03-30T18:11:03.839Z,35.4
2019-03-30T18:16:01.214Z,34.6
2019-03-30T18:21:01.186Z,33.9
2019-03-30T18:26:01.285Z,32.4
2019-03-30T18:31:01.173Z,30.9
2019-03-30T18:36:01.283Z,31.4
2019-03-30T18:41:01.163Z,32.1
2019-03-30T18:46:01.222Z,31.0
2019-03-30T18:51:01.155Z,31.5
2019-03-30T18:56:01.216Z,31.3
2019-03-30T19:01:01.146Z,29.6
2019-03-30T19:06:01.262Z,27.5
2019-03-30T19:11:01.179Z,26.7
2019-03-30T19:16:01.248Z,24.9
2019-03-30T19:21:01.155Z,23.1
2019-03-30T19:26:01.312Z,20.6
2019-03-30T19:31:01.157Z,18.7
2019-03-30T19:36:01.264Z,16.3
2019-03-30T19:41:01.189Z,14.2
2019-03-30T19:46:01.228Z,12.1
2019-03-30T19:51:01.191Z,10.4
2019-03-30T19:56:01.217Z,8.7
2019-03-30T20:01:01.182Z,7.4
2019-03-30T20:06:01.421Z,6.4
2019-03-30T20:11:06.483Z,5.7
2019-03-30T20:16:01.281Z,5.3
2019-03-30T20:21:01.301Z,5.1
2019-03-30T20:26:01.252Z,4.4
2019-03-30T20:31:01.186Z,3.5
2019-03-30T20:36:01.234Z,3.2
2019-03-30T20:41:01.190Z,3.0
2019-03-30T20:46:01.316Z,2.8
2019-03-30T20:51:01.145Z,3.0
2019-03-30T20:56:06.389Z,3.2
2019-03-30T21:01:01.145Z,3.5
2019-03-30T21:06:01.221Z,3.7
2019-03-30T21:11:01.192Z,4.2
2019-03-30T21:16:01.226Z,4.3
2019-03-30T21:21:01.157Z,4.6
2019-03-30T21:26:01.260Z,4.8
2019-03-30T21:31:01.148Z,4.9
2019-03-30T21:36:01.249Z,4.7
2019-03-30T21:41:01.165Z,4.8
2019-03-30T21:46:01.214Z,4.9
2019-03-30T21:51:01.163Z,4.8
2019-03-30T22:01:01.314Z,4.5
2019-03-30T22:11:01.281Z,4.3
2019-03-30T22:16:01.215Z,4.2
2019-03-30T22:26:01.314Z,4.4
2019-03-30T22:31:01.197Z,4.3
2019-03-30T22:36:01.282Z,4.5
2019-03-30T22:41:01.157Z,4.7
2019-03-30T22:46:01.249Z,4.5
2019-03-30T22:51:01.155Z,4.6
2019-03-30T23:01:01.229Z,4.5
2019-03-30T23:06:01.310Z,4.1
2019-03-30T23:11:01.201Z,4.5
2019-03-30T23:16:02.058Z,4.6
2019-03-30T23:21:01.163Z,4.8
2019-03-30T23:26:01.250Z,5.0
2019-03-30T23:31:01.147Z,5.1
2019-03-30T23:36:01.218Z,4.7
2019-03-30T23:41:01.178Z,4.3
2019-03-30T23:46:01.356Z,4.1
2019-03-30T23:51:01.194Z,3.9
2019-03-30T23:56:01.256Z,3.8
